Creelman (971, 635, 6917) Station Data

Red Flag Warning: No
Fire Weather Zone: 250
SDGE Region: Ramona
Lat/Lon: 33.016/-116.871

Observations

Time Wind Speed/Gust Temp(F) RH Fuel Moist Fuel Temp(F) Dewpt(F) Tmax(F) Tmin(F) Accum Precip 10-min Precip SL Press(mb)
4/26 2:40am 315 1 G 3 47° 100% - - 47° 66.9° 32° - - -
4/26 2:30am 109 2 G 3 46° 100% - - 46° 66.9° 32° - - -
4/26 2:20am 102 1 G 3 46° 100% - - 46° 66.9° 32° - - -
4/26 2:10am 56 3 G 5 46° 100% - - 46° 66.9° 32° - - -
4/26 2:00am 301 1 G 2 46° 100% - - 46° 65.8° 32° - - -
4/26 1:50am 238 1 G 3 47° 100% - - 47° 65.8° 32° - - -
4/26 1:40am 78 1 G 1 47° 100% - - 47° 64.3° 32° - - -
4/26 1:30am 59 1 G 2 47° 100% - - 47° 64.3° 35.7° - - -
4/26 1:20am 0 0 G 0 47° 100% - - 48° 64.3° 35.7° - - -
4/26 1:10am 0 0 G 0 47° 100% - - 47° 63.8° 35.7° - - -
4/26 1:00am 337 0 G 2 48° 100% - - 48° 63.8° 36° - - -
4/26 12:50am 0 0 G 0 49° 100% - - 49° 63.8° 36° - - -
4/26 12:40am 19 1 G 2 50° 100% - - 50° 63.8° 36° - - -
4/26 12:30am 70 2 G 2 49° 100% - - 49° 63.8° 36° - - -
4/26 12:20am 117 2 G 2 49° 100% - - 49° 62.4° 37.4° - - -
4/26 12:10am 80 1 G 3 50° 100% - - 50° 62.1° 37.4° - - -
4/26 12:00am 234 2 G 2 49° 100% - - 49° 87.9° 33.2° - - -
4/25 11:50pm 226 3 G 4 49° 99% - - 49° 87.9° 33.2° - - -
4/25 11:40pm 248 2 G 4 50° 100% - - 50° 87.9° 33.2° - - -
4/25 11:30pm 0 0 G 0 51° 100% - - 51° 87.9° 33.2° - - -
4/25 11:20pm 113 1 G 2 51° 98% - - 50° 87.9° 33.2° - - -
4/25 11:10pm 40 1 G 2 51° 97% - - 51° 87.9° 33.2° - - -
4/25 11:00pm 13 1 G 2 52° 80% - - 46° 87.9° 33.2° - - -
4/25 10:50pm 47 1 G 2 52° 59% - - 38° 87.9° 33.2° - - -
4/25 10:40pm 0 0 G 0 52° 58% - - 38° 87.9° 33.2° - - -
4/25 10:30pm 107 1 G 2 53° 55% - - 37° 87.9° 33.2° - - -
4/25 10:20pm 101 2 G 3 53° 53% - - 37° 87.9° 33.2° - - -
4/25 10:10pm 90 1 G 2 53° 53% - - 36° 87.9° 33.2° - - -
4/25 10:00pm 89 2 G 3 53° 66% - - 42° 87.9° 33.2° - - -
4/25 9:50pm 86 2 G 2 54° 76% - - 47° 87.9° 33.2° - - -
4/25 9:40pm 99 2 G 3 54° 96% - - 53° 87.9° 33.2° - - -
4/25 9:30pm 100 2 G 3 55° 94% - - 53° 87.9° 33.2° - - -
4/25 9:20pm 101 3 G 4 55° 100% - - 55° 87.9° 33.2° - - -
4/25 9:10pm 93 2 G 3 55° 100% - - 55° 87.9° 33.2° - - -
4/25 9:00pm 97 0 G 2 55° 100% - - 55° 87.9° 33.2° - - -
4/25 8:50pm 293 1 G 2 56° 100% - - 56° 87.9° 33.2° - - -
4/25 8:40pm 295 1 G 2 56° 100% - - 56° 87.9° 33.2° - - -
4/25 8:30pm 315 1 G 2 56° 100% - - 56° 87.9° 33.2° - - -
4/25 8:20pm 0 0 G 0 56° 100% - - 56° 87.9° 33.2° - - -
4/25 8:10pm 265 0 G 2 57° 100% - - 57° 87.9° 33.2° - - -
4/25 8:00pm 266 1 G 2 57° 100% - - 57° 87.9° 33.2° - - -
4/25 7:50pm 187 2 G 3 57° 100% - - 57° 87.9° 33.2° - - -
4/25 7:40pm 236 2 G 5 57° 100% - - 57° 87.9° 33.2° - - -
4/25 7:30pm 283 5 G 7 58° 100% - - 58° 87.9° 33.2° - - -
4/25 7:20pm 285 5 G 8 58° 100% - - 58° 87.9° 33.2° - - -
4/25 7:10pm 286 5 G 8 59° 100% - - 59° 87.9° 33.2° - - -
4/25 7:00pm 279 4 G 7 59° 100% - - 59° 87.9° 33.2° - - -
4/25 6:50pm 261 6 G 10 60° 100% - - 60° 87.9° 33.2° - - -
4/25 6:30pm 280 7 G 10 60° 100% - - 60° 87.9° 33.2° - - -
4/25 6:20pm 270 6 G 11 61° 100% - - 61° 87.9° 33.2° - - -
4/25 6:10pm 269 9 G 12 61° 100% - - 61° 87.9° 33.2° - - -
4/25 6:00pm 267 7 G 12 62° 100% - - 62° 87.9° 33.2° - - -
4/25 5:50pm 278 8 G 13 62° 100% - - 62° 87.9° 33.2° - - -
4/25 5:40pm 270 8 G 11 63° 100% - - 63° 87.9° 33.2° - - -
4/25 5:30pm 282 8 G 13 63° 100% - - 63° 87.9° 33.2° - - -
4/25 5:20pm 295 9 G 13 63° 100% - - 63° 87.9° 33.2° - - -
4/25 5:10pm 266 9 G 14 63° 100% - - 64° 87.9° 33.2° - - -
4/25 5:00pm 273 9 G 14 64° 100% - - 64° 87.9° 33.2° - - -
4/25 4:50pm 280 9 G 13 64° 100% - - 64° 87.9° 33.2° - - -
4/25 4:40pm 287 8 G 13 64° 100% - - 64° 87.9° 33.2° - - -
4/25 4:30pm 275 9 G 14 64° 100% - - 64° 87.9° 33.2° - - -
4/25 4:20pm 285 7 G 11 65° 100% - - 65° 87.9° 33.2° - - -
4/25 4:10pm 272 8 G 13 65° 100% - - 65° 87.9° 33.2° - - -
4/25 4:00pm 260 9 G 13 65° 100% - - 65° 87.9° 33.2° - - -
4/25 3:50pm 283 8 G 16 65° 100% - - 65° 87.9° 33.2° - - -
4/25 3:40pm 293 9 G 15 65° 100% - - 65° 87.9° 33.2° - - -
4/25 3:30pm 304 8 G 13 65° 100% - - 65° 87.9° 33.2° - - -
4/25 3:20pm 293 8 G 15 65° 100% - - 65° 87.9° 33.2° - - -
4/25 3:10pm 269 8 G 14 64° 100% - - 64° 87.9° 33.2° - - -
4/25 3:00pm 269 7 G 13 64° 100% - - 64° 87.9° 33.2° - - -
4/25 2:50pm 274 8 G 11 64° 100% - - 64° 87.9° 33.2° - - -
4/25 2:40pm 296 7 G 10 64° 100% - - 64° 87.9° 33.2° - - -
4/25 2:30pm 269 6 G 11 64° 100% - - 64° 87.9° 33.2° - - -
4/25 2:20pm 271 9 G 14 65° 100% - - 65° 87.9° 33.2° - - -
4/25 2:10pm 280 7 G 13 65° 100% - - 65° 87.9° 33.2° - - -
4/25 2:00pm 283 7 G 12 65° 100% - - 65° 87.9° 33.2° - - -
4/25 1:50pm 264 7 G 15 64° 100% - - 65° 87.9° 33.2° - - -
4/25 1:40pm 265 7 G 12 65° 100% - - 65° 87.9° 33.2° - - -
4/25 1:30pm 262 9 G 15 65° 100% - - 65° 87.9° 33.2° - - -
4/25 1:20pm 247 10 G 16 64° 100% - - 64° 87.9° 33.2° - - -
4/25 1:10pm 274 9 G 17 65° 100% - - 65° 87.9° 33.2° - - -
4/25 1:00pm 286 8 G 14 65° 100% - - 65° 87.9° 33.2° - - -
4/25 12:50pm 289 7 G 11 65° 100% - - 65° 87.9° 33.2° - - -
4/25 12:40pm 273 7 G 14 65° 100% - - 65° 87.9° 33.2° - - -
4/25 12:30pm 276 5 G 13 65° 100% - - 65° 87.9° 33.2° - - -
4/25 12:20pm 275 8 G 13 64° 100% - - 64° 87.9° 33.2° - - -
4/25 12:10pm 287 8 G 13 64° 100% - - 64° 87.9° 33.2° - - -
4/25 12:00pm 278 6 G 12 64° 100% - - 64° 87.9° 33.2° - - -
4/25 11:50am 222 6 G 11 63° 100% - - 63° 87.9° 33.2° - - -
4/25 11:40am 270 4 G 8 63° 100% - - 63° 87.9° 33.2° - - -
4/25 11:30am 330 5 G 11 64° 100% - - 64° 87.9° 33.2° - - -
4/25 11:20am 230 4 G 9 63° 100% - - 63° 87.9° 33.2° - - -
4/25 11:10am 232 5 G 11 62° 93% - - 59° 87.9° 33.2° - - -
4/25 11:00am 276 4 G 9 62° 52% - - 43° 87.9° 33.2° - - -
4/25 10:50am 217 6 G 11 60° 66% - - 48° 87.9° 33.2° - - -
4/25 10:40am 199 5 G 12 61° 100% - - 61° 87.9° 33.2° - - -
4/25 10:30am 284 4 G 8 60° 100% - - 60° 87.9° 33.2° - - -
4/25 10:20am 193 4 G 8 60° 100% - - 60° 87.9° 33.2° - - -
4/25 10:10am 214 7 G 11 60° 100% - - 60° 87.9° 33.2° - - -
4/25 10:00am 196 5 G 11 60° 100% - - 60° 87.9° 33.2° - - -
4/25 9:50am 183 5 G 9 61° 100% - - 61° 87.9° 33.2° - - -
4/25 9:40am 203 6 G 13 59° 100% - - 59° 87.9° 33.2° - - -
4/25 9:30am 199 6 G 10 59° 100% - - 59° 87.9° 33.2° - - -
4/25 9:20am 194 5 G 10 59° 100% - - 59° 87.9° 33.2° - - -
4/25 9:10am 237 7 G 10 57° 100% - - 57° 87.9° 33.2° - - -
4/25 9:00am 219 6 G 11 57° 100% - - 57° 87.9° 33.2° - - -
4/25 8:50am 199 6 G 10 55° 100% - - 55° 87.9° 33.2° - - -
4/25 8:40am 198 6 G 11 55° 100% - - 55° 87.9° 33.2° - - -
4/25 8:30am 202 8 G 12 58° 100% - - 58° 87.9° 33.2° - - -
4/25 8:20am 202 8 G 13 55° 100% - - 55° 87.9° 33.2° - - -
4/25 8:10am 202 8 G 15 55° 100% - - 55° 87.9° 33.2° - - -
4/25 8:00am 209 9 G 14 54° 100% - - 54° 87.9° 33.2° - - -
4/25 7:50am 203 7 G 11 54° 100% - - 54° 87.9° 33.2° - - -
4/25 7:40am 202 7 G 12 53° 100% - - 53° 87.9° 33.2° - - -
4/25 7:30am 203 7 G 10 53° 100% - - 53° 87.9° 33.2° - - -
4/25 7:20am 203 7 G 15 53° 100% - - 53° 87.9° 33.2° - - -
4/25 7:10am 206 8 G 14 52° 100% - - 52° 87.9° 33.2° - - -
4/25 7:00am 203 7 G 13 52° 100% - - 52° 87.9° 33.2° - - -
4/25 6:50am 209 7 G 11 52° 100% - - 52° 87.9° 33.2° - - -
4/25 6:40am 203 7 G 11 51° 100% - - 51° 87.9° 33.2° - - -
4/25 6:30am 206 6 G 10 52° 100% - - 52° 87.9° 33.2° - - -
4/25 6:20am 200 6 G 11 52° 100% - - 52° 87.9° 33.2° - - -
4/25 6:10am 201 6 G 10 52° 100% - - 52° 87.9° 33.2° - - -
4/25 6:00am 203 6 G 10 52° 100% - - 52° 87.9° 33.2° - - -
4/25 5:50am 200 5 G 10 52° 100% - - 52° 87.9° 33.2° - - -
4/25 5:40am 202 5 G 8 52° 100% - - 52° 87.9° 33.2° - - -
4/25 5:30am 191 5 G 9 52° 100% - - 52° 87.9° 33.2° - - -
4/25 5:20am 193 4 G 9 52° 100% - - 52° 87.9° 33.2° - - -
4/25 5:10am 194 4 G 7 52° 100% - - 52° 87.9° 33.2° - - -
4/25 5:00am 192 5 G 8 52° 100% - - 52° 87.9° 33.2° - - -
4/25 4:50am 189 5 G 8 51° 100% - - 51° 87.9° 33.2° - - -
4/25 4:40am 188 4 G 8 52° 100% - - 52° 87.9° 33.2° - - -
4/25 4:30am 181 5 G 9 51° 100% - - 51° 87.9° 33.2° - - -
4/25 4:20am 189 5 G 10 51° 100% - - 51° 87.9° 33.2° - - -
4/25 4:10am 196 5 G 10 52° 100% - - 52° 87.9° 33.2° - - -
4/25 4:00am 203 7 G 13 51° 100% - - 51° 87.9° 33.2° - - -
4/25 3:50am 196 6 G 12 52° 100% - - 52° 87.9° 33.2° - - -
4/25 3:40am 196 6 G 11 51° 100% - - 51° 87.9° 33.2° - - -
4/25 3:30am 196 8 G 14 52° 100% - - 52° 87.9° 33.2° - - -
4/25 3:20am 200 7 G 11 52° 100% - - 52° 87.9° 33.2° - - -
4/25 3:10am 204 8 G 15 53° 100% - - 54° 87.9° 36.6° - - -
4/25 3:00am 203 8 G 13 53° 100% - - 53° 87.9° 36.6° - - -
4/25 2:50am 217 6 G 10 53° 100% - - 53° 87.9° 36.6° - - -
4/25 2:40am 217 8 G 12 54° 100% - - 54° 87.9° 36.6° - - -
4/25 2:30am 213 7 G 11 52° 100% - - 52° 87.9° 36.6° - - -
4/25 2:20am 210 8 G 14 52° 100% - - 52° 87.9° 36.6° - - -
4/25 2:10am 201 6 G 12 53° 100% - - 53° 87.9° 36.6° - - -
4/25 2:00am 208 5 G 11 53° 100% - - 53° 87.9° 36.6° - - -
4/25 1:50am 204 5 G 11 54° 100% - - 54° 87.9° 36.6° - - -
4/25 1:40am 214 6 G 9 53° 100% - - 53° 87.9° 36.6° - - -
4/25 1:30am 204 6 G 10 53° 100% - - 53° 87.9° 36.6° - - -
4/25 1:20am 196 6 G 11 52° 100% - - 53° 87.9° 36.6° - - -
4/25 1:10am 206 8 G 11 53° 100% - - 53° 87.9° 36.6° - - -
4/25 1:00am 211 8 G 12 53° 100% - - 53° 87.9° 36.6° - - -
4/25 12:50am 206 7 G 13 53° 100% - - 53° 75.8° 36.6° - - -
4/25 12:40am 197 6 G 9 53° 100% - - 53° 75.8° 39.3° - - -
4/25 12:30am 207 8 G 12 54° 100% - - 54° 73.2° 39.3° - - -
4/25 12:20am 202 6 G 12 53° 100% - - 53° 73.2° 39.3° - - -
4/25 12:10am 160 4 G 10 53° 100% - - 53° 71.7° 39.3° - - -
4/25 12:00am 182 6 G 11 53° 100% - - 53° 86.8° 27.9° - - -
4/24 11:50pm 181 6 G 10 53° 100% - - 53° 86.8° 27.9° - - -
4/24 11:40pm 191 4 G 7 54° 100% - - 54° 86.8° 27.9° - - -
4/24 11:30pm 211 4 G 8 54° 100% - - 54° 86.8° 27.9° - - -
4/24 11:20pm 215 6 G 10 54° 100% - - 54° 86.8° 27.9° - - -
4/24 11:10pm 215 5 G 8 54° 100% - - 54° 82.2° 27.9° - - -
4/24 11:00pm 230 7 G 12 54° 100% - - 54° 82.2° 27.9° - - -
4/24 10:50pm 223 7 G 10 53° 100% - - 53° 82.2° 27.9° - - -
4/24 10:40pm 212 8 G 11 54° 100% - - 54° 82.2° 27.9° - - -
4/24 10:30pm 209 7 G 12 53° 100% - - 53° 82.2° 27.9° - - -
4/24 10:20pm 214 7 G 13 54° 100% - - 54° 82.2° 27.9° - - -
4/24 10:10pm 200 5 G 9 54° 100% - - 54° 82.2° 27.9° - - -
4/24 10:00pm 216 5 G 8 54° 100% - - 54° 82.2° 27.9° - - -
4/24 9:50pm 229 5 G 8 54° 100% - - 54° 82.2° 27.9° - - -
4/24 9:40pm 218 6 G 8 55° 100% - - 55° 82.2° 27.9° - - -
4/24 9:30pm 223 5 G 8 56° 100% - - 56° 82.2° 27.9° - - -
4/24 9:20pm 199 3 G 6 55° 100% - - 55° 82.2° 27.9° - - -
4/24 9:10pm 196 4 G 6 56° 100% - - 56° 82.2° 27.9° - - -
4/24 9:00pm 199 4 G 8 56° 100% - - 56° 82.2° 27.9° - - -
4/24 8:50pm 220 5 G 9 56° 100% - - 56° 82.2° 27.9° - - -
4/24 8:40pm 219 6 G 9 57° 100% - - 57° 82.2° 27.9° - - -
4/24 8:30pm 224 4 G 7 57° 100% - - 57° 82.2° 27.9° - - -
4/24 8:20pm 230 6 G 9 57° 100% - - 57° 82.2° 27.9° - - -
4/24 8:10pm 219 6 G 9 56° 100% - - 56° 82.2° 27.9° - - -
4/24 8:00pm 220 6 G 8 57° 100% - - 57° 82.2° 27.9° - - -
4/24 7:50pm 221 5 G 7 57° 100% - - 57° 82.2° 27.9° - - -
4/24 7:40pm 218 6 G 11 57° 100% - - 57° 82.2° 27.9° - - -
4/24 7:30pm 231 7 G 10 58° 100% - - 58° 82.2° 27.9° - - -
4/24 7:20pm 220 8 G 11 57° 100% - - 57° 82.2° 27.9° - - -
4/24 7:10pm 220 8 G 10 58° 99% - - 57° 82.2° 27.9° - - -
4/24 7:00pm 219 8 G 12 59° 73% - - 49° 82.2° 27.9° - - -
4/24 6:50pm 223 7 G 10 60° 48% - - 40° 82.2° 27.9° - - -
4/24 6:40pm 228 8 G 12 60° 49% - - 40° 82.2° 27.9° - - -
4/24 6:30pm 229 9 G 12 60° 65% - - 48° 82.2° 27.9° - - -
4/24 6:20pm 238 9 G 12 61° 69% - - 50° 82.2° 27.9° - - -
4/24 6:10pm 234 9 G 12 61° 86% - - 56° 82.2° 27.9° - - -
4/24 6:00pm 244 10 G 13 60° 100% - - 60° 82.2° 27.9° - - -